Главная страница
METAR-TAF:

METAR-TAF

Аэропорты :

Шереметьево

Москва-Шереметьево, Россия

широта: 55-58N, долгота: 037-25E, высота над уровнем моря: 190 м

Текущие метеонаблюдения

Эта сводка был подготовлена 10 минут назад, в 03:00 UTC
Ветер 2 Узел от северно-северо-западный
Температура 12°C
Влажность 100%
Давление 1024 hPa
Видимость 10 км и более
Нет облачности ниже 1500 м, и нет кучево-дождевой облачности

METAR: UUEE 170300Z 34001MPS CAVOK 12/12 Q1024 R06R/CLRD62 NOSIG

Время: 06:10 (03:10 UTC)

Прогноз

Эта сводка был подготовлена 1 час и 20 минут назад, в 01:50 UTC
Прогноз действительный с 17-го 03 UTC до 18-го 03 UTC
Ветер 6 Узел от северо-северо-восточный
Видимость 10 км и более
Отдельные облака на высоте 3000 фута

TAF: UUEE 170150Z 1703/1803 02003MPS 9999 SCT030 TX22/1712Z TN12/1703Z

Метеонаблюдения и прогнозы для более 4000 аэропортов (сводки METAR и TAF).

Имеющиеся станции представлены на карте желтыми и красными точками.

Чтобы увидеть название станции, наведите на нее мышь.

Затем щелкните, чтобы увидеть метеонаблюдения и метеопрогнозы.

Управление картой: чтобы увеличить масштаб, щелкните зеленые кнопки с черным крестиком; чтобы уменьшить масштаб, щелкните зеленую кнопку с тире; для просмотра соседних карт щелкайте зеленые стрелки.


METAR-TAF: